Maud, Oklahoma
Current Conditions -  °F | °C
As of 6:55 PM on Saturday 25 Oct 2014 (Local Time) from KADH Reporting Station
Clear Clear  
Wind Chill: 79°   Ceiling: Unl
Heat Index: 80°   Visibility: 10mi
Dew Point: 61°   Wind: 7mph
Humidity: 54%   Direction: 200°SSW
Pressure: 30.03"   Gusts: NA
Location:  35.13°N, 96.78°W
Report Text: KADH 252355Z AUTO 20006KT 10SM CLR 26/16 A3003 RMK AO2
Loading
Personal Weather Stations






























Interactive Weather Map
Tropical Storm Tracking
New forecast layout! Learn more

10-Day Weather Forecast

Advertisements
Track Severe Weather on mobile